createdAt,value
2022-11-02T00:00:15.063Z,99809.38
2022-11-02T00:03:36.592Z,99806.64
2022-11-02T00:06:58.295Z,99810.28
2022-11-02T00:10:15.095Z,99808.73
2022-11-02T00:13:16.935Z,99810.11
2022-11-02T00:16:19.990Z,99812.35
2022-11-02T00:19:21.771Z,99814.10
2022-11-02T00:22:24.066Z,99806.91
2022-11-02T00:25:26.835Z,99807.77
2022-11-02T00:28:29.198Z,99810.89
2022-11-02T00:31:33.897Z,99804.73
2022-11-02T00:34:35.555Z,99800.05
2022-11-02T00:37:37.670Z,99801.20
2022-11-02T00:40:39.504Z,99799.69
2022-11-02T00:43:41.229Z,99805.27
2022-11-02T00:46:42.881Z,99807.52
2022-11-02T00:49:44.573Z,99812.02
2022-11-02T00:52:46.364Z,99811.32
2022-11-02T00:55:48.084Z,99814.09
2022-11-02T00:58:49.879Z,99813.61
2022-11-02T01:01:51.831Z,99816.36
2022-11-02T01:04:56.683Z,99811.02
2022-11-02T01:07:58.546Z,99808.01
2022-11-02T01:11:19.318Z,99808.00
2022-11-02T01:14:21.711Z,99810.22
2022-11-02T01:17:23.464Z,99809.73
2022-11-02T01:20:25.512Z,99809.64
2022-11-02T01:23:27.436Z,99809.63
2022-11-02T01:26:29.215Z,99809.00
2022-11-02T01:29:30.898Z,99808.93
2022-11-02T01:32:32.722Z,99807.77
2022-11-02T01:35:37.002Z,99804.86
2022-11-02T01:38:38.725Z,99797.92
2022-11-02T01:41:41.323Z,99796.77
2022-11-02T01:44:44.199Z,99797.91
2022-11-02T01:47:48.553Z,99802.72
2022-11-02T01:50:50.211Z,99802.41
2022-11-02T01:53:53.055Z,99803.95
2022-11-02T01:57:01.702Z,99806.07
2022-11-02T02:00:12.197Z,99806.77
2022-11-02T02:03:18.986Z,99806.27
2022-11-02T02:06:20.846Z,99807.02
2022-11-02T02:09:23.493Z,99809.88
2022-11-02T02:12:25.822Z,99812.46
2022-11-02T02:15:39.400Z,99813.59
2022-11-02T02:18:47.740Z,99820.27
2022-11-02T02:22:05.494Z,99816.49
2022-11-02T02:25:31.703Z,99819.35
2022-11-02T02:28:57.049Z,99823.92
2022-11-02T02:32:36.417Z,99821.30
2022-11-02T02:35:49.271Z,99825.67
2022-11-02T02:39:13.413Z,99827.91
2022-11-02T02:42:21.779Z,99821.25
2022-11-02T02:45:23.380Z,99823.85
2022-11-02T02:48:25.776Z,99822.30
2022-11-02T02:51:32.544Z,99825.98
2022-11-02T02:54:42.648Z,99830.20
2022-11-02T02:57:45.842Z,99831.34
2022-11-02T03:00:47.962Z,99833.11
2022-11-02T03:03:49.701Z,99829.16
2022-11-02T03:06:58.138Z,99834.70
2022-11-02T03:10:10.731Z,99834.80
2022-11-02T03:13:21.108Z,99834.94
2022-11-02T03:16:35.386Z,99839.98
2022-11-02T03:19:42.627Z,99847.05
2022-11-02T03:22:58.259Z,99854.32
2022-11-02T03:26:11.305Z,99854.13
2022-11-02T03:29:16.633Z,99857.10
2022-11-02T03:32:39.100Z,99864.30
2022-11-02T03:35:47.461Z,99863.18
2022-11-02T03:38:53.657Z,99862.36
2022-11-02T03:41:56.910Z,99861.35
2022-11-02T03:45:07.860Z,99861.34
2022-11-02T03:48:12.187Z,99856.38
2022-11-02T03:51:16.150Z,99857.70
2022-11-02T03:54:43.678Z,99862.31
2022-11-02T03:57:47.870Z,99858.45
2022-11-02T04:00:58.853Z,99858.89
2022-11-02T04:04:00.569Z,99864.53
2022-11-02T04:07:05.338Z,99869.83
2022-11-02T04:10:07.397Z,99874.10
2022-11-02T04:13:27.953Z,99877.49
2022-11-02T04:16:29.634Z,99877.60
2022-11-02T04:19:31.270Z,99882.73
2022-11-02T04:22:51.830Z,99876.52
2022-11-02T04:25:56.340Z,99873.91
2022-11-02T04:28:58.084Z,99875.36
2022-11-02T04:31:59.906Z,99875.05
2022-11-02T04:35:02.197Z,99871.17
2022-11-02T04:38:22.904Z,99873.65
2022-11-02T04:41:43.567Z,99869.91
2022-11-02T04:44:45.198Z,99866.66
2022-11-02T04:47:46.799Z,99868.05
2022-11-02T04:50:48.493Z,99868.20
2022-11-02T04:53:50.655Z,99870.77
2022-11-02T04:56:52.485Z,99879.79
2022-11-02T04:59:54.140Z,99882.77
2022-11-02T05:02:55.975Z,99882.69
2022-11-02T05:05:57.675Z,99889.52
2022-11-02T05:08:59.321Z,99887.48
2022-11-02T05:12:02.025Z,99888.95
2022-11-02T05:15:04.975Z,99893.40
2022-11-02T05:18:07.111Z,99897.66
2022-11-02T05:21:11.040Z,99897.73
2022-11-02T05:24:12.686Z,99902.34
2022-11-02T05:27:15.470Z,99903.74
2022-11-02T05:30:17.179Z,99900.52
2022-11-02T05:33:19.012Z,99899.55
2022-11-02T05:36:20.735Z,99900.67
2022-11-02T05:39:22.425Z,99901.27
2022-11-02T05:42:26.012Z,99908.85
2022-11-02T05:45:27.791Z,99910.04
2022-11-02T05:48:32.430Z,99913.88
2022-11-02T05:51:34.146Z,99914.75
2022-11-02T05:54:36.058Z,99913.09
2022-11-02T05:57:37.804Z,99910.98
2022-11-02T06:00:40.523Z,99910.36
2022-11-02T06:03:42.338Z,99918.88
2022-11-02T06:06:44.163Z,99923.21
2022-11-02T06:09:45.877Z,99927.77
2022-11-02T06:12:47.575Z,99928.17
2022-11-02T06:15:49.358Z,99934.56
2022-11-02T06:18:51.964Z,99930.86
2022-11-02T06:21:53.704Z,99929.87
2022-11-02T06:24:55.348Z,99930.79
2022-11-02T06:27:57.531Z,99932.91
2022-11-02T06:30:59.244Z,99931.70
2022-11-02T06:34:00.929Z,99928.53
2022-11-02T06:37:02.735Z,99929.83
2022-11-02T06:40:04.850Z,99934.15
2022-11-02T06:43:22.993Z,99938.33
2022-11-02T06:46:25.643Z,99938.89
2022-11-02T06:49:27.313Z,99940.34
2022-11-02T06:52:29.547Z,99942.25
2022-11-02T06:55:31.552Z,99940.86
2022-11-02T06:58:33.289Z,99940.13
2022-11-02T07:01:35.420Z,99944.48
2022-11-02T07:04:37.403Z,99946.84
2022-11-02T07:07:39.395Z,99942.55
2022-11-02T07:10:41.116Z,99940.29
2022-11-02T07:13:43.434Z,99938.75
2022-11-02T07:16:45.314Z,99937.71
2022-11-02T07:19:47.035Z,99944.48
2022-11-02T07:22:56.939Z,99941.89
2022-11-02T07:26:01.621Z,99939.95
2022-11-02T07:29:03.633Z,99945.22
2022-11-02T07:32:07.738Z,99940.13
2022-11-02T07:35:11.477Z,99935.76
2022-11-02T07:38:13.596Z,99934.88
2022-11-02T07:41:15.393Z,99926.78
2022-11-02T07:44:17.073Z,99924.92
2022-11-02T07:47:18.888Z,99924.00
2022-11-02T07:50:23.225Z,99931.45
2022-11-02T07:53:24.871Z,99929.73
2022-11-02T07:56:26.625Z,99929.29
2022-11-02T07:59:28.961Z,99929.22
2022-11-02T08:02:30.767Z,99925.02
2022-11-02T08:05:35.069Z,99917.41
2022-11-02T08:08:37.152Z,99918.95
2022-11-02T08:11:39.202Z,99915.85
2022-11-02T08:14:40.950Z,99918.35
2022-11-02T08:17:42.880Z,99919.30
2022-11-02T08:20:46.364Z,99920.10
2022-11-02T08:23:48.087Z,99922.63
2022-11-02T08:26:53.904Z,99920.00
2022-11-02T08:29:57.305Z,99913.11
2022-11-02T08:33:13.308Z,99912.64
2022-11-02T08:36:15.191Z,99914.09
2022-11-02T08:39:19.069Z,99912.37
2022-11-02T08:42:21.091Z,99910.34
2022-11-02T08:45:22.793Z,99911.71
2022-11-02T08:48:24.823Z,99915.90
2022-11-02T08:51:26.410Z,99913.61
2022-11-02T08:54:28.727Z,99912.67
2022-11-02T08:57:30.425Z,99912.48
2022-11-02T09:00:33.962Z,99913.23
2022-11-02T09:03:35.837Z,99911.70
2022-11-02T09:06:37.540Z,99902.73
2022-11-02T09:09:39.309Z,99898.09
2022-11-02T09:12:40.953Z,99896.84
2022-11-02T09:15:59.558Z,99901.23
2022-11-02T09:19:05.288Z,99900.00
2022-11-02T09:22:07.213Z,99900.57
2022-11-02T09:25:09.689Z,99897.84
2022-11-02T09:28:13.290Z,99889.46
2022-11-02T09:31:15.054Z,99892.01
2022-11-02T09:34:17.028Z,99892.67
2022-11-02T09:37:18.972Z,99888.48
2022-11-02T09:40:23.351Z,99887.84
2022-11-02T09:43:38.242Z,99889.63
2022-11-02T09:46:43.562Z,99886.34
2022-11-02T09:49:45.583Z,99885.86
2022-11-02T09:52:52.284Z,99889.14
2022-11-02T09:55:57.537Z,99889.46
2022-11-02T09:59:23.358Z,99889.48
2022-11-02T10:02:47.074Z,99882.60
2022-11-02T10:06:04.565Z,99880.39
2022-11-02T10:09:37.941Z,99880.19
2022-11-02T10:12:55.489Z,99881.73
2022-11-02T10:16:02.391Z,99874.25
2022-11-02T10:19:10.131Z,99875.79
2022-11-02T10:22:14.015Z,99877.25
2022-11-02T10:25:16.612Z,99875.13
2022-11-02T10:28:26.327Z,99874.48
2022-11-02T10:31:33.401Z,99872.57
2022-11-02T10:34:35.333Z,99877.88
2022-11-02T10:38:16.604Z,99874.03
2022-11-02T10:41:21.423Z,99876.01
2022-11-02T10:44:59.175Z,99872.48
2022-11-02T10:48:11.495Z,99867.89
2022-11-02T10:51:14.822Z,99869.48
2022-11-02T10:54:20.576Z,99865.88
2022-11-02T10:57:28.158Z,99866.42
2022-11-02T11:00:35.467Z,99864.85
2022-11-02T11:04:01.482Z,99864.15
2022-11-02T11:07:21.080Z,99865.08
2022-11-02T11:10:23.759Z,99863.09
2022-11-02T11:16:56.508Z,99859.70
2022-11-02T11:20:02.741Z,99858.73
2022-11-02T11:23:21.462Z,99857.80
2022-11-02T11:26:28.463Z,99856.86
2022-11-02T11:29:32.786Z,99852.52
2022-11-02T11:32:35.569Z,99849.23
2022-11-02T11:35:38.857Z,99853.09
2022-11-02T11:38:47.135Z,99848.54
2022-11-02T11:41:48.966Z,99850.48
2022-11-02T11:45:03.067Z,99847.46
2022-11-02T11:48:23.026Z,99852.30
2022-11-02T11:51:34.246Z,99857.15
2022-11-02T11:54:36.675Z,99842.78
2022-11-02T12:00:45.167Z,99846.11
2022-11-02T12:04:01.355Z,99851.80
2022-11-02T12:07:09.455Z,99845.84
2022-11-02T12:10:21.897Z,99840.39
2022-11-02T12:13:45.558Z,99839.50
2022-11-02T12:17:12.501Z,99838.73
2022-11-02T12:20:38.498Z,99841.39
2022-11-02T12:23:52.895Z,99838.31
2022-11-02T12:27:15.808Z,99834.00
2022-11-02T12:30:22.056Z,99832.08
2022-11-02T12:33:35.353Z,99833.98
2022-11-02T12:40:24.082Z,99835.72
2022-11-02T12:43:39.428Z,99836.08
2022-11-02T12:46:57.165Z,99830.64
2022-11-02T12:50:01.892Z,99827.58
2022-11-02T12:53:19.130Z,99826.60
2022-11-02T12:56:26.539Z,99830.83
2022-11-02T12:59:31.498Z,99829.27
2022-11-02T13:02:45.269Z,99832.66
2022-11-02T13:05:54.664Z,99832.91
2022-11-02T13:09:09.253Z,99838.87
2022-11-02T13:12:15.250Z,99836.10
2022-11-02T13:15:20.153Z,99834.30
2022-11-02T13:18:24.865Z,99836.55
2022-11-02T13:21:44.165Z,99837.23
2022-11-02T13:24:50.314Z,99840.11
2022-11-02T13:27:54.892Z,99841.76
2022-11-02T13:30:57.144Z,99839.91
2022-11-02T13:34:02.414Z,99840.30
2022-11-02T13:37:17.472Z,99842.64
2022-11-02T13:40:26.490Z,99844.35
2022-11-02T13:43:43.217Z,99844.67
2022-11-02T13:46:59.895Z,99844.00
2022-11-02T13:50:03.565Z,99848.20
2022-11-02T13:53:08.933Z,99844.26
2022-11-02T13:56:12.911Z,99849.07
2022-11-02T13:59:24.237Z,99848.55
2022-11-02T14:02:29.185Z,99847.42
2022-11-02T14:05:33.212Z,99852.10
2022-11-02T14:08:38.257Z,99851.93
2022-11-02T14:11:40.258Z,99855.52
2022-11-02T14:14:41.927Z,99854.84
2022-11-02T14:17:56.509Z,99850.15
2022-11-02T14:20:58.719Z,99854.14
2022-11-02T14:24:00.733Z,99853.17
2022-11-02T14:27:13.012Z,99849.30
2022-11-02T14:30:33.671Z,99851.83
2022-11-02T14:33:38.328Z,99847.38
2022-11-02T14:37:01.143Z,99848.66
2022-11-02T14:40:26.737Z,99848.77
2022-11-02T14:43:50.007Z,99845.30
2022-11-02T14:47:07.986Z,99848.24
2022-11-02T14:50:12.635Z,99853.73
2022-11-02T14:53:25.393Z,99851.93
2022-11-02T14:57:06.620Z,99851.38
2022-11-02T15:00:17.898Z,99847.54
2022-11-02T15:03:25.754Z,99852.91
2022-11-02T15:06:28.489Z,99854.46
2022-11-02T15:09:59.269Z,99854.55
2022-11-02T15:13:19.459Z,99859.65
2022-11-02T15:16:22.563Z,99859.30
2022-11-02T15:19:47.368Z,99863.86
2022-11-02T15:22:52.830Z,99865.43
2022-11-02T15:25:55.097Z,99868.89
2022-11-02T15:28:59.131Z,99869.67
2022-11-02T15:32:01.681Z,99872.37
2022-11-02T15:35:04.146Z,99874.08
2022-11-02T15:38:30.354Z,99876.71
2022-11-02T15:41:45.012Z,99879.66
2022-11-02T15:45:05.411Z,99882.62
2022-11-02T15:48:22.260Z,99889.30
2022-11-02T15:51:47.162Z,99892.01
2022-11-02T15:55:10.597Z,99891.29
2022-11-02T15:58:21.841Z,99893.96
2022-11-02T16:01:25.593Z,99894.61
2022-11-02T16:04:27.982Z,99900.60
2022-11-02T16:07:43.585Z,99906.12
2022-11-02T16:11:04.344Z,99914.16
2022-11-02T16:14:17.331Z,99916.73
2022-11-02T16:17:27.106Z,99917.65
2022-11-02T16:20:31.936Z,99919.51
2022-11-02T16:23:36.739Z,99920.15
2022-11-02T16:26:38.550Z,99921.70
2022-11-02T16:29:41.125Z,99924.75
2022-11-02T16:32:43.123Z,99927.39
2022-11-02T16:35:44.850Z,99929.80
2022-11-02T16:38:54.525Z,99933.16
2022-11-02T16:41:58.625Z,99930.67
2022-11-02T16:45:01.278Z,99933.55
2022-11-02T16:48:04.680Z,99932.29
2022-11-02T16:51:18.171Z,99940.84
2022-11-02T16:54:26.745Z,99944.77
2022-11-02T16:57:31.334Z,99947.16
2022-11-02T17:00:34.172Z,99952.13
2022-11-02T17:03:35.939Z,99952.38
2022-11-02T17:06:43.124Z,99952.09
2022-11-02T17:09:54.061Z,99951.69
2022-11-02T17:12:56.432Z,99955.20
2022-11-02T17:16:04.723Z,99958.85
2022-11-02T17:19:06.347Z,99964.68
2022-11-02T17:22:29.344Z,99965.64
2022-11-02T17:25:39.601Z,99965.71
2022-11-02T17:28:44.908Z,99970.52
2022-11-02T17:31:53.563Z,99971.35
2022-11-02T17:34:57.033Z,99979.34
2022-11-02T17:37:58.720Z,99978.10
2022-11-02T17:41:00.911Z,99978.64
2022-11-02T17:44:03.112Z,99981.54
2022-11-02T17:47:16.040Z,99985.55
2022-11-02T17:50:18.668Z,99982.86
2022-11-02T17:53:20.621Z,99984.27
2022-11-02T17:56:22.219Z,99985.99
2022-11-02T17:59:23.855Z,99985.70
2022-11-02T18:02:25.593Z,99989.30
2022-11-02T18:05:28.690Z,99991.80
2022-11-02T18:08:30.394Z,99988.39
2022-11-02T18:11:32.173Z,99993.52
2022-11-02T18:14:34.223Z,99997.45
2022-11-02T18:17:35.802Z,99997.65
2022-11-02T18:20:41.615Z,100001.25
2022-11-02T18:23:44.723Z,100002.40
2022-11-02T18:26:47.205Z,100004.34
2022-11-02T18:29:49.005Z,100009.68
2022-11-02T18:32:50.639Z,100011.09
2022-11-02T18:35:52.318Z,100007.65
2022-11-02T18:38:53.993Z,100011.11
2022-11-02T18:41:55.577Z,100010.24
2022-11-02T18:44:58.651Z,100015.13
2022-11-02T18:48:00.330Z,100015.37
2022-11-02T18:51:04.704Z,100014.02
2022-11-02T18:54:06.533Z,100020.09
2022-11-02T18:57:08.144Z,100018.14
2022-11-02T19:00:10.270Z,100021.21
2022-11-02T19:03:11.895Z,100020.26
2022-11-02T19:06:32.493Z,100019.05
2022-11-02T19:09:35.994Z,100021.20
2022-11-02T19:12:37.929Z,100026.42
2022-11-02T19:15:42.533Z,100028.55
2022-11-02T19:18:44.777Z,100034.27
2022-11-02T19:21:46.963Z,100033.98
2022-11-02T19:24:50.113Z,100040.96
2022-11-02T19:27:51.777Z,100044.69
2022-11-02T19:30:53.421Z,100049.32
2022-11-02T19:33:55.074Z,100058.03
2022-11-02T19:36:56.726Z,100066.41
2022-11-02T19:39:58.312Z,100066.79
2022-11-02T19:43:00.022Z,100069.23
2022-11-02T19:46:02.656Z,100067.62
2022-11-02T19:49:04.263Z,100071.38
2022-11-02T19:52:05.859Z,100072.23
2022-11-02T19:55:07.861Z,100073.71
2022-11-02T19:58:09.644Z,100082.55
2022-11-02T20:01:13.909Z,100089.79
2022-11-02T20:04:15.747Z,100092.71
2022-11-02T20:07:17.451Z,100104.39
2022-11-02T20:10:19.087Z,100107.79
2022-11-02T20:13:20.674Z,100103.48
2022-11-02T20:16:22.547Z,100102.31
2022-11-02T20:19:24.157Z,100103.73
2022-11-02T20:22:25.866Z,100107.15
2022-11-02T20:25:27.654Z,100104.16
2022-11-02T20:28:29.534Z,100103.77
2022-11-02T20:31:34.072Z,100100.84
2022-11-02T20:34:36.860Z,100094.34
2022-11-02T20:37:38.479Z,100093.60
2022-11-02T20:40:41.386Z,100094.42
2022-11-02T20:43:45.501Z,100101.18
2022-11-02T20:46:52.761Z,100107.00
2022-11-02T20:49:55.154Z,100113.41
2022-11-02T20:52:58.736Z,100119.94
2022-11-02T20:56:00.940Z,100117.66
2022-11-02T20:59:02.779Z,100112.55
2022-11-02T21:02:04.550Z,100112.38
2022-11-02T21:05:06.676Z,100107.75
2022-11-02T21:08:08.325Z,100113.80
2022-11-02T21:11:29.671Z,100113.79
2022-11-02T21:14:31.462Z,100110.78
2022-11-02T21:17:34.695Z,100110.14
2022-11-02T21:20:36.810Z,100115.85
2022-11-02T21:23:38.920Z,100118.89
2022-11-02T21:26:40.535Z,100124.83
2022-11-02T21:29:42.355Z,100120.85
2022-11-02T21:32:44.017Z,100122.10
2022-11-02T21:35:47.711Z,100124.80
2022-11-02T21:38:49.472Z,100117.39
2022-11-02T21:41:51.276Z,100115.42
2022-11-02T21:44:52.888Z,100112.92
2022-11-02T21:47:54.455Z,100105.34
2022-11-02T21:51:13.185Z,100109.41
2022-11-02T21:54:18.081Z,100118.08
2022-11-02T21:57:20.867Z,100129.79
2022-11-02T22:00:22.552Z,100127.19
2022-11-02T22:03:24.307Z,100128.30
2022-11-02T22:06:30.942Z,100129.92
2022-11-02T22:09:33.571Z,100128.45
2022-11-02T22:12:54.232Z,100130.52
2022-11-02T22:15:55.955Z,100130.29
2022-11-02T22:18:59.637Z,100135.18
2022-11-02T22:22:01.416Z,100137.08
2022-11-02T22:25:03.161Z,100137.16
2022-11-02T22:28:04.975Z,100135.05
2022-11-02T22:31:15.652Z,100132.13
2022-11-02T22:34:17.368Z,100133.97
2022-11-02T22:37:38.106Z,100141.55
2022-11-02T22:40:39.688Z,100143.35
2022-11-02T22:43:42.397Z,100139.45
2022-11-02T22:46:46.580Z,100137.55
2022-11-02T22:49:48.647Z,100134.08
2022-11-02T22:52:50.214Z,100138.92
2022-11-02T22:56:03.651Z,100138.89
2022-11-02T22:59:06.091Z,100138.63
2022-11-02T23:02:07.858Z,100140.61
2022-11-02T23:05:09.975Z,100135.73
2022-11-02T23:08:11.632Z,100138.16
2022-11-02T23:11:21.340Z,100135.92
2022-11-02T23:14:23.107Z,100136.98
2022-11-02T23:17:25.044Z,100139.36
2022-11-02T23:20:26.671Z,100139.81
2022-11-02T23:23:46.992Z,100146.70
2022-11-02T23:26:49.699Z,100146.70
2022-11-02T23:30:10.063Z,100150.33
2022-11-02T23:33:12.143Z,100153.52
2022-11-02T23:36:15.472Z,100156.61
2022-11-02T23:39:49.514Z,100159.30
2022-11-02T23:42:51.288Z,100160.84
2022-11-02T23:45:52.937Z,100159.31
2022-11-02T23:48:54.552Z,100158.23
2022-11-02T23:52:14.782Z,100160.80
2022-11-02T23:55:39.386Z,100162.77
2022-11-02T23:58:41.180Z,100161.07
